sensor_id;sensor_type;location;lat;lon;timestamp;P1;durP1;ratioP1;P2;durP2;ratioP2
23449;SDS011;11897;45.438;12.128;2023-10-31T00:00:33;4.00;;;1.10;;
23449;SDS011;11897;45.438;12.128;2023-10-31T00:02:59;1.53;;;0.80;;
23449;SDS011;11897;45.438;12.128;2023-10-31T00:05:27;1.00;;;0.80;;
23449;SDS011;11897;45.438;12.128;2023-10-31T00:07:54;2.40;;;0.80;;
23449;SDS011;11897;45.438;12.128;2023-10-31T00:10:20;1.10;;;0.70;;
23449;SDS011;11897;45.438;12.128;2023-10-31T00:12:49;2.83;;;0.77;;
23449;SDS011;11897;45.438;12.128;2023-10-31T00:15:16;0.50;;;0.50;;
23449;SDS011;11897;45.438;12.128;2023-10-31T00:17:43;2.40;;;0.90;;
23449;SDS011;11897;45.438;12.128;2023-10-31T00:20:10;1.67;;;0.60;;
23449;SDS011;11897;45.438;12.128;2023-10-31T00:22:39;1.20;;;0.50;;
23449;SDS011;11897;45.438;12.128;2023-10-31T00:25:05;0.93;;;0.70;;
23449;SDS011;11897;45.438;12.128;2023-10-31T00:27:32;1.00;;;0.53;;
23449;SDS011;11897;45.438;12.128;2023-10-31T00:29:59;4.17;;;0.70;;
23449;SDS011;11897;45.438;12.128;2023-10-31T00:32:26;4.60;;;1.10;;
23449;SDS011;11897;45.438;12.128;2023-10-31T00:34:52;2.20;;;0.77;;
23449;SDS011;11897;45.438;12.128;2023-10-31T00:37:21;2.93;;;1.10;;
23449;SDS011;11897;45.438;12.128;2023-10-31T00:39:49;2.20;;;0.80;;
23449;SDS011;11897;45.438;12.128;2023-10-31T00:42:16;1.63;;;0.80;;
23449;SDS011;11897;45.438;12.128;2023-10-31T00:44:42;3.27;;;0.70;;
23449;SDS011;11897;45.438;12.128;2023-10-31T00:47:09;2.57;;;0.60;;
23449;SDS011;11897;45.438;12.128;2023-10-31T00:49:36;2.50;;;1.00;;
23449;SDS011;11897;45.438;12.128;2023-10-31T00:52:03;2.03;;;0.73;;
23449;SDS011;11897;45.438;12.128;2023-10-31T00:54:30;1.03;;;0.70;;
23449;SDS011;11897;45.438;12.128;2023-10-31T00:57:01;1.63;;;0.77;;
23449;SDS011;11897;45.438;12.128;2023-10-31T00:59:28;1.50;;;0.93;;
23449;SDS011;11897;45.438;12.128;2023-10-31T01:01:54;3.63;;;1.10;;
23449;SDS011;11897;45.438;12.128;2023-10-31T01:04:21;1.47;;;0.80;;
23449;SDS011;11897;45.438;12.128;2023-10-31T01:06:50;2.00;;;0.80;;
23449;SDS011;11897;45.438;12.128;2023-10-31T01:09:17;2.10;;;1.00;;
23449;SDS011;11897;45.438;12.128;2023-10-31T01:11:43;2.37;;;0.83;;
23449;SDS011;11897;45.438;12.128;2023-10-31T01:14:11;1.83;;;0.80;;
23449;SDS011;11897;45.438;12.128;2023-10-31T01:16:39;3.07;;;1.17;;
23449;SDS011;11897;45.438;12.128;2023-10-31T01:19:06;5.90;;;1.23;;
23449;SDS011;11897;45.438;12.128;2023-10-31T01:21:33;3.77;;;1.10;;
23449;SDS011;11897;45.438;12.128;2023-10-31T01:23:59;4.23;;;0.93;;
23449;SDS011;11897;45.438;12.128;2023-10-31T01:26:26;3.67;;;1.10;;
23449;SDS011;11897;45.438;12.128;2023-10-31T01:28:53;8.50;;;1.40;;
23449;SDS011;11897;45.438;12.128;2023-10-31T01:31:21;3.47;;;1.53;;
23449;SDS011;11897;45.438;12.128;2023-10-31T01:33:48;3.13;;;1.80;;
23449;SDS011;11897;45.438;12.128;2023-10-31T01:36:15;10.73;;;1.80;;
23449;SDS011;11897;45.438;12.128;2023-10-31T01:38:43;5.33;;;1.43;;
23449;SDS011;11897;45.438;12.128;2023-10-31T01:41:11;4.93;;;1.67;;
23449;SDS011;11897;45.438;12.128;2023-10-31T01:43:38;5.20;;;1.30;;
23449;SDS011;11897;45.438;12.128;2023-10-31T01:46:06;5.80;;;1.77;;
23449;SDS011;11897;45.438;12.128;2023-10-31T01:48:39;6.20;;;1.30;;
23449;SDS011;11897;45.438;12.128;2023-10-31T01:51:08;5.13;;;1.57;;
23449;SDS011;11897;45.438;12.128;2023-10-31T01:53:36;1.87;;;1.40;;
23449;SDS011;11897;45.438;12.128;2023-10-31T01:56:06;3.73;;;1.43;;
23449;SDS011;11897;45.438;12.128;2023-10-31T01:58:35;1.93;;;1.10;;
23449;SDS011;11897;45.438;12.128;2023-10-31T02:01:03;3.77;;;1.20;;
23449;SDS011;11897;45.438;12.128;2023-10-31T02:03:30;3.77;;;1.40;;
23449;SDS011;11897;45.438;12.128;2023-10-31T02:05:59;5.00;;;1.23;;
23449;SDS011;11897;45.438;12.128;2023-10-31T02:08:26;4.60;;;1.40;;
23449;SDS011;11897;45.438;12.128;2023-10-31T02:10:53;3.47;;;1.37;;
23449;SDS011;11897;45.438;12.128;2023-10-31T02:13:20;6.23;;;1.30;;
23449;SDS011;11897;45.438;12.128;2023-10-31T02:15:46;2.03;;;1.03;;
23449;SDS011;11897;45.438;12.128;2023-10-31T02:18:13;3.00;;;1.10;;
23449;SDS011;11897;45.438;12.128;2023-10-31T02:20:41;4.30;;;1.40;;
23449;SDS011;11897;45.438;12.128;2023-10-31T02:23:09;3.47;;;1.37;;
23449;SDS011;11897;45.438;12.128;2023-10-31T02:25:35;1.77;;;1.23;;
23449;SDS011;11897;45.438;12.128;2023-10-31T02:28:02;2.30;;;1.10;;
23449;SDS011;11897;45.438;12.128;2023-10-31T02:30:29;5.17;;;1.10;;
23449;SDS011;11897;45.438;12.128;2023-10-31T02:32:56;5.00;;;1.13;;
23449;SDS011;11897;45.438;12.128;2023-10-31T02:35:22;3.37;;;1.10;;
23449;SDS011;11897;45.438;12.128;2023-10-31T02:37:49;3.40;;;1.07;;
23449;SDS011;11897;45.438;12.128;2023-10-31T02:40:18;4.30;;;1.17;;
23449;SDS011;11897;45.438;12.128;2023-10-31T02:42:45;4.40;;;1.73;;
23449;SDS011;11897;45.438;12.128;2023-10-31T02:45:12;1.73;;;1.10;;
23449;SDS011;11897;45.438;12.128;2023-10-31T02:47:39;6.37;;;1.07;;
23449;SDS011;11897;45.438;12.128;2023-10-31T02:50:06;3.83;;;1.27;;
23449;SDS011;11897;45.438;12.128;2023-10-31T02:52:33;3.07;;;1.13;;
23449;SDS011;11897;45.438;12.128;2023-10-31T02:55:00;2.70;;;1.60;;
23449;SDS011;11897;45.438;12.128;2023-10-31T02:57:28;6.40;;;1.47;;
23449;SDS011;11897;45.438;12.128;2023-10-31T02:59:55;2.13;;;1.40;;
23449;SDS011;11897;45.438;12.128;2023-10-31T03:02:22;3.83;;;1.53;;
23449;SDS011;11897;45.438;12.128;2023-10-31T03:04:49;6.77;;;1.50;;
23449;SDS011;11897;45.438;12.128;2023-10-31T03:07:15;2.57;;;1.07;;
23449;SDS011;11897;45.438;12.128;2023-10-31T03:09:42;5.50;;;1.33;;
23449;SDS011;11897;45.438;12.128;2023-10-31T03:12:10;3.60;;;1.20;;
23449;SDS011;11897;45.438;12.128;2023-10-31T03:14:38;5.70;;;1.60;;
23449;SDS011;11897;45.438;12.128;2023-10-31T03:17:06;6.13;;;1.33;;
23449;SDS011;11897;45.438;12.128;2023-10-31T03:19:33;5.80;;;1.30;;
23449;SDS011;11897;45.438;12.128;2023-10-31T03:22:00;5.10;;;1.40;;
23449;SDS011;11897;45.438;12.128;2023-10-31T03:24:29;8.53;;;1.77;;
23449;SDS011;11897;45.438;12.128;2023-10-31T03:26:58;7.70;;;1.70;;
23449;SDS011;11897;45.438;12.128;2023-10-31T03:29:25;7.57;;;1.87;;
23449;SDS011;11897;45.438;12.128;2023-10-31T03:31:53;5.53;;;1.70;;
23449;SDS011;11897;45.438;12.128;2023-10-31T03:34:21;3.90;;;1.63;;
23449;SDS011;11897;45.438;12.128;2023-10-31T03:36:47;5.50;;;1.50;;
23449;SDS011;11897;45.438;12.128;2023-10-31T03:39:16;3.00;;;1.77;;
23449;SDS011;11897;45.438;12.128;2023-10-31T03:41:43;5.43;;;1.53;;
23449;SDS011;11897;45.438;12.128;2023-10-31T03:44:12;4.17;;;1.53;;
23449;SDS011;11897;45.438;12.128;2023-10-31T03:46:38;3.17;;;1.17;;
23449;SDS011;11897;45.438;12.128;2023-10-31T03:49:06;4.23;;;1.70;;
23449;SDS011;11897;45.438;12.128;2023-10-31T03:51:33;5.57;;;1.83;;
23449;SDS011;11897;45.438;12.128;2023-10-31T03:54:00;4.50;;;1.57;;
23449;SDS011;11897;45.438;12.128;2023-10-31T03:56:27;4.87;;;1.37;;
23449;SDS011;11897;45.438;12.128;2023-10-31T03:58:53;2.53;;;1.60;;
23449;SDS011;11897;45.438;12.128;2023-10-31T04:01:20;5.97;;;1.63;;
23449;SDS011;11897;45.438;12.128;2023-10-31T04:03:47;2.03;;;1.10;;
23449;SDS011;11897;45.438;12.128;2023-10-31T04:06:15;2.63;;;1.23;;
23449;SDS011;11897;45.438;12.128;2023-10-31T04:08:43;3.97;;;1.57;;
23449;SDS011;11897;45.438;12.128;2023-10-31T04:11:09;2.07;;;1.70;;
23449;SDS011;11897;45.438;12.128;2023-10-31T04:13:36;3.80;;;1.57;;
23449;SDS011;11897;45.438;12.128;2023-10-31T04:16:03;3.63;;;1.57;;
23449;SDS011;11897;45.438;12.128;2023-10-31T04:18:30;3.30;;;1.57;;
23449;SDS011;11897;45.438;12.128;2023-10-31T04:20:57;2.07;;;1.17;;
23449;SDS011;11897;45.438;12.128;2023-10-31T04:23:25;5.97;;;1.60;;
23449;SDS011;11897;45.438;12.128;2023-10-31T04:25:51;3.53;;;1.67;;
23449;SDS011;11897;45.438;12.128;2023-10-31T04:28:20;7.13;;;1.80;;
23449;SDS011;11897;45.438;12.128;2023-10-31T04:30:47;2.27;;;1.20;;
23449;SDS011;11897;45.438;12.128;2023-10-31T04:33:14;7.20;;;1.70;;
23449;SDS011;11897;45.438;12.128;2023-10-31T04:35:41;2.33;;;1.60;;
23449;SDS011;11897;45.438;12.128;2023-10-31T04:38:07;5.30;;;2.07;;
23449;SDS011;11897;45.438;12.128;2023-10-31T04:40:35;2.83;;;1.57;;
23449;SDS011;11897;45.438;12.128;2023-10-31T04:43:02;2.67;;;1.57;;
23449;SDS011;11897;45.438;12.128;2023-10-31T04:45:29;2.77;;;1.67;;
23449;SDS011;11897;45.438;12.128;2023-10-31T04:47:56;3.60;;;1.63;;
23449;SDS011;11897;45.438;12.128;2023-10-31T04:50:22;5.20;;;1.80;;
23449;SDS011;11897;45.438;12.128;2023-10-31T04:52:50;5.20;;;1.73;;
23449;SDS011;11897;45.438;12.128;2023-10-31T04:55:17;5.40;;;1.73;;
23449;SDS011;11897;45.438;12.128;2023-10-31T04:57:48;6.27;;;1.57;;
23449;SDS011;11897;45.438;12.128;2023-10-31T05:00:17;5.33;;;1.50;;
23449;SDS011;11897;45.438;12.128;2023-10-31T05:02:43;3.03;;;1.43;;
23449;SDS011;11897;45.438;12.128;2023-10-31T05:05:10;6.63;;;1.70;;
23449;SDS011;11897;45.438;12.128;2023-10-31T05:07:37;4.70;;;1.90;;
23449;SDS011;11897;45.438;12.128;2023-10-31T05:10:04;3.20;;;1.27;;
23449;SDS011;11897;45.438;12.128;2023-10-31T05:12:31;6.00;;;1.57;;
23449;SDS011;11897;45.438;12.128;2023-10-31T05:14:59;7.10;;;1.80;;
23449;SDS011;11897;45.438;12.128;2023-10-31T05:17:25;3.33;;;1.70;;
23449;SDS011;11897;45.438;12.128;2023-10-31T05:19:52;3.00;;;1.37;;
23449;SDS011;11897;45.438;12.128;2023-10-31T05:22:19;5.70;;;1.80;;
23449;SDS011;11897;45.438;12.128;2023-10-31T05:24:46;7.37;;;1.50;;
23449;SDS011;11897;45.438;12.128;2023-10-31T05:27:16;2.63;;;1.27;;
23449;SDS011;11897;45.438;12.128;2023-10-31T05:29:44;3.37;;;1.60;;
23449;SDS011;11897;45.438;12.128;2023-10-31T05:32:12;2.10;;;1.67;;
23449;SDS011;11897;45.438;12.128;2023-10-31T05:34:39;6.83;;;1.87;;
23449;SDS011;11897;45.438;12.128;2023-10-31T05:37:05;4.13;;;1.73;;
23449;SDS011;11897;45.438;12.128;2023-10-31T05:39:33;5.17;;;1.73;;
23449;SDS011;11897;45.438;12.128;2023-10-31T05:42:02;4.43;;;1.10;;
23449;SDS011;11897;45.438;12.128;2023-10-31T05:44:28;2.73;;;1.43;;
23449;SDS011;11897;45.438;12.128;2023-10-31T05:46:55;4.00;;;1.47;;
23449;SDS011;11897;45.438;12.128;2023-10-31T05:49:23;5.97;;;1.40;;
23449;SDS011;11897;45.438;12.128;2023-10-31T05:51:50;4.20;;;1.27;;
23449;SDS011;11897;45.438;12.128;2023-10-31T05:54:17;2.83;;;1.40;;
23449;SDS011;11897;45.438;12.128;2023-10-31T05:56:43;2.00;;;1.20;;
23449;SDS011;11897;45.438;12.128;2023-10-31T05:59:10;8.90;;;1.30;;
23449;SDS011;11897;45.438;12.128;2023-10-31T06:01:37;6.40;;;1.30;;
23449;SDS011;11897;45.438;12.128;2023-10-31T06:04:03;11.37;;;1.43;;
23449;SDS011;11897;45.438;12.128;2023-10-31T06:06:32;2.50;;;1.27;;
23449;SDS011;11897;45.438;12.128;2023-10-31T06:08:59;8.40;;;1.33;;
23449;SDS011;11897;45.438;12.128;2023-10-31T06:11:30;2.47;;;1.10;;
23449;SDS011;11897;45.438;12.128;2023-10-31T06:13:57;7.13;;;1.37;;
23449;SDS011;11897;45.438;12.128;2023-10-31T06:16:25;5.13;;;1.40;;
23449;SDS011;11897;45.438;12.128;2023-10-31T06:18:51;2.67;;;1.00;;
23449;SDS011;11897;45.438;12.128;2023-10-31T06:21:19;3.87;;;1.13;;
23449;SDS011;11897;45.438;12.128;2023-10-31T06:23:47;2.20;;;0.80;;
23449;SDS011;11897;45.438;12.128;2023-10-31T06:26:14;3.53;;;1.10;;
23449;SDS011;11897;45.438;12.128;2023-10-31T06:28:41;2.60;;;1.10;;
23449;SDS011;11897;45.438;12.128;2023-10-31T06:31:07;1.50;;;0.87;;
23449;SDS011;11897;45.438;12.128;2023-10-31T06:33:34;2.70;;;0.70;;
23449;SDS011;11897;45.438;12.128;2023-10-31T06:36:01;0.83;;;0.70;;
23449;SDS011;11897;45.438;12.128;2023-10-31T06:38:28;1.23;;;0.77;;
23449;SDS011;11897;45.438;12.128;2023-10-31T06:40:56;3.43;;;0.80;;
23449;SDS011;11897;45.438;12.128;2023-10-31T06:43:24;2.40;;;0.87;;
23449;SDS011;11897;45.438;12.128;2023-10-31T06:45:50;2.47;;;0.60;;
23449;SDS011;11897;45.438;12.128;2023-10-31T06:48:17;3.27;;;1.00;;
23449;SDS011;11897;45.438;12.128;2023-10-31T06:50:44;2.00;;;0.70;;
23449;SDS011;11897;45.438;12.128;2023-10-31T06:53:11;2.90;;;0.87;;
23449;SDS011;11897;45.438;12.128;2023-10-31T06:55:37;1.47;;;0.60;;
23449;SDS011;11897;45.438;12.128;2023-10-31T06:58:05;2.67;;;0.80;;
23449;SDS011;11897;45.438;12.128;2023-10-31T07:00:32;1.63;;;0.80;;
23449;SDS011;11897;45.438;12.128;2023-10-31T07:02:59;2.40;;;0.90;;
23449;SDS011;11897;45.438;12.128;2023-10-31T07:05:30;2.80;;;0.60;;
23449;SDS011;11897;45.438;12.128;2023-10-31T07:07:56;2.97;;;0.80;;
23449;SDS011;11897;45.438;12.128;2023-10-31T07:10:23;3.57;;;0.93;;
23449;SDS011;11897;45.438;12.128;2023-10-31T07:12:50;1.27;;;0.70;;
23449;SDS011;11897;45.438;12.128;2023-10-31T07:15:18;2.83;;;1.00;;
23449;SDS011;11897;45.438;12.128;2023-10-31T07:17:46;2.27;;;0.80;;
23449;SDS011;11897;45.438;12.128;2023-10-31T07:20:12;1.27;;;0.70;;
23449;SDS011;11897;45.438;12.128;2023-10-31T07:22:39;2.45;;;0.60;;
23449;SDS011;11897;45.438;12.128;2023-10-31T07:25:06;2.35;;;0.80;;
23449;SDS011;11897;45.438;12.128;2023-10-31T07:27:33;2.33;;;0.88;;
23449;SDS011;11897;45.438;12.128;2023-10-31T07:29:59;8.60;;;0.93;;
23449;SDS011;11897;45.438;12.128;2023-10-31T07:32:28;1.83;;;0.47;;
23449;SDS011;11897;45.438;12.128;2023-10-31T07:34:54;1.25;;;0.40;;
23449;SDS011;11897;45.438;12.128;2023-10-31T07:37:21;3.22;;;0.50;;
23449;SDS011;11897;45.438;12.128;2023-10-31T07:39:48;1.73;;;0.60;;
23449;SDS011;11897;45.438;12.128;2023-10-31T07:42:16;1.33;;;0.63;;
23449;SDS011;11897;45.438;12.128;2023-10-31T07:44:42;1.33;;;0.60;;
23449;SDS011;11897;45.438;12.128;2023-10-31T07:47:09;1.35;;;0.52;;
23449;SDS011;11897;45.438;12.128;2023-10-31T07:49:37;2.03;;;0.60;;
23449;SDS011;11897;45.438;12.128;2023-10-31T07:52:04;1.25;;;0.68;;
23449;SDS011;11897;45.438;12.128;2023-10-31T07:54:31;1.67;;;0.70;;
23449;SDS011;11897;45.438;12.128;2023-10-31T07:56:57;2.92;;;0.75;;
23449;SDS011;11897;45.438;12.128;2023-10-31T07:59:24;2.33;;;0.60;;
23449;SDS011;11897;45.438;12.128;2023-10-31T08:01:51;2.05;;;0.60;;
23449;SDS011;11897;45.438;12.128;2023-10-31T08:04:17;1.75;;;0.68;;
23449;SDS011;11897;45.438;12.128;2023-10-31T08:06:45;1.98;;;0.70;;
23449;SDS011;11897;45.438;12.128;2023-10-31T08:09:12;2.28;;;0.52;;
23449;SDS011;11897;45.438;12.128;2023-10-31T08:11:38;2.42;;;0.70;;
23449;SDS011;11897;45.438;12.128;2023-10-31T08:14:05;2.63;;;0.70;;
23449;SDS011;11897;45.438;12.128;2023-10-31T08:16:33;4.38;;;0.90;;
23449;SDS011;11897;45.438;12.128;2023-10-31T08:19:00;3.40;;;0.90;;
23449;SDS011;11897;45.438;12.128;2023-10-31T08:21:27;2.33;;;0.80;;
23449;SDS011;11897;45.438;12.128;2023-10-31T08:24:00;2.45;;;0.50;;
23449;SDS011;11897;45.438;12.128;2023-10-31T08:26:29;3.03;;;0.52;;
23449;SDS011;11897;45.438;12.128;2023-10-31T08:28:56;4.53;;;0.90;;
23449;SDS011;11897;45.438;12.128;2023-10-31T08:31:23;1.75;;;0.70;;
23449;SDS011;11897;45.438;12.128;2023-10-31T08:33:50;1.95;;;0.50;;
23449;SDS011;11897;45.438;12.128;2023-10-31T08:36:16;1.58;;;0.60;;
23449;SDS011;11897;45.438;12.128;2023-10-31T08:38:43;2.03;;;0.73;;
23449;SDS011;11897;45.438;12.128;2023-10-31T08:41:11;4.07;;;0.90;;
23449;SDS011;11897;45.438;12.128;2023-10-31T08:43:44;1.58;;;0.68;;
23449;SDS011;11897;45.438;12.128;2023-10-31T08:46:10;5.57;;;0.83;;
23449;SDS011;11897;45.438;12.128;2023-10-31T08:48:37;1.60;;;0.63;;
23449;SDS011;11897;45.438;12.128;2023-10-31T08:51:05;2.45;;;0.57;;
23449;SDS011;11897;45.438;12.128;2023-10-31T08:53:32;4.07;;;0.70;;
23449;SDS011;11897;45.438;12.128;2023-10-31T08:55:58;3.33;;;0.65;;
23449;SDS011;11897;45.438;12.128;2023-10-31T08:58:27;0.47;;;0.30;;
23449;SDS011;11897;45.438;12.128;2023-10-31T09:00:54;1.75;;;0.50;;
23449;SDS011;11897;45.438;12.128;2023-10-31T09:03:21;2.90;;;0.60;;
23449;SDS011;11897;45.438;12.128;2023-10-31T09:05:49;3.53;;;0.50;;
23449;SDS011;11897;45.438;12.128;2023-10-31T09:08:15;1.30;;;0.50;;
23449;SDS011;11897;45.438;12.128;2023-10-31T09:10:42;3.60;;;0.70;;
23449;SDS011;11897;45.438;12.128;2023-10-31T09:13:11;2.95;;;0.90;;
23449;SDS011;11897;45.438;12.128;2023-10-31T09:15:40;1.77;;;0.73;;
23449;SDS011;11897;45.438;12.128;2023-10-31T09:18:07;2.83;;;0.47;;
23449;SDS011;11897;45.438;12.128;2023-10-31T09:20:34;0.70;;;0.50;;
23449;SDS011;11897;45.438;12.128;2023-10-31T09:23:00;0.50;;;0.37;;
23449;SDS011;11897;45.438;12.128;2023-10-31T09:25:27;0.60;;;0.22;;
23449;SDS011;11897;45.438;12.128;2023-10-31T09:27:55;0.20;;;0.20;;
23449;SDS011;11897;45.438;12.128;2023-10-31T09:30:24;0.90;;;0.30;;
23449;SDS011;11897;45.438;12.128;2023-10-31T09:32:52;1.30;;;0.20;;
23449;SDS011;11897;45.438;12.128;2023-10-31T09:35:19;0.47;;;0.20;;
23449;SDS011;11897;45.438;12.128;2023-10-31T09:37:45;0.57;;;0.45;;
23449;SDS011;11897;45.438;12.128;2023-10-31T09:40:14;0.37;;;0.20;;
23449;SDS011;11897;45.438;12.128;2023-10-31T09:42:41;1.33;;;0.20;;
23449;SDS011;11897;45.438;12.128;2023-10-31T09:45:09;0.00;;;0.00;;
23449;SDS011;11897;45.438;12.128;2023-10-31T09:47:37;0.00;;;0.00;;
23449;SDS011;11897;45.438;12.128;2023-10-31T09:50:06;0.00;;;0.00;;
23449;SDS011;11897;45.438;12.128;2023-10-31T09:52:35;0.10;;;0.10;;
23449;SDS011;11897;45.438;12.128;2023-10-31T09:55:02;0.50;;;0.13;;
23449;SDS011;11897;45.438;12.128;2023-10-31T09:57:28;0.00;;;0.00;;
23449;SDS011;11897;45.438;12.128;2023-10-31T09:59:55;0.23;;;0.20;;
23449;SDS011;11897;45.438;12.128;2023-10-31T10:02:22;0.17;;;0.17;;
23449;SDS011;11897;45.438;12.128;2023-10-31T10:04:48;3.00;;;0.30;;
23449;SDS011;11897;45.438;12.128;2023-10-31T10:07:17;0.53;;;0.10;;
23449;SDS011;11897;45.438;12.128;2023-10-31T10:09:44;0.20;;;0.20;;
23449;SDS011;11897;45.438;12.128;2023-10-31T10:12:11;1.70;;;0.30;;
23449;SDS011;11897;45.438;12.128;2023-10-31T10:14:38;0.10;;;0.10;;
23449;SDS011;11897;45.438;12.128;2023-10-31T10:17:10;0.37;;;0.10;;
23449;SDS011;11897;45.438;12.128;2023-10-31T10:19:40;0.10;;;0.03;;
23449;SDS011;11897;45.438;12.128;2023-10-31T10:22:07;0.37;;;0.20;;
23449;SDS011;11897;45.438;12.128;2023-10-31T10:24:38;0.10;;;0.10;;
23449;SDS011;11897;45.438;12.128;2023-10-31T10:27:05;1.37;;;0.20;;
23449;SDS011;11897;45.438;12.128;2023-10-31T10:29:33;0.10;;;0.10;;
23449;SDS011;11897;45.438;12.128;2023-10-31T10:32:00;0.30;;;0.20;;
23449;SDS011;11897;45.438;12.128;2023-10-31T10:34:27;0.00;;;0.00;;
23449;SDS011;11897;45.438;12.128;2023-10-31T10:36:53;0.27;;;0.10;;
23449;SDS011;11897;45.438;12.128;2023-10-31T10:39:22;1.40;;;0.10;;
23449;SDS011;11897;45.438;12.128;2023-10-31T10:41:52;0.10;;;0.10;;
23449;SDS011;11897;45.438;12.128;2023-10-31T10:44:21;1.47;;;0.20;;
23449;SDS011;11897;45.438;12.128;2023-10-31T10:46:54;1.43;;;0.10;;
23449;SDS011;11897;45.438;12.128;2023-10-31T10:49:22;1.30;;;0.20;;
23449;SDS011;11897;45.438;12.128;2023-10-31T10:51:52;0.33;;;0.10;;
23449;SDS011;11897;45.438;12.128;2023-10-31T10:54:24;1.47;;;0.20;;
23449;SDS011;11897;45.438;12.128;2023-10-31T10:56:59;0.20;;;0.20;;
23449;SDS011;11897;45.438;12.128;2023-10-31T10:59:27;0.10;;;0.10;;
23449;SDS011;11897;45.438;12.128;2023-10-31T11:01:57;1.07;;;0.30;;
23449;SDS011;11897;45.438;12.128;2023-10-31T11:04:25;1.67;;;0.37;;
23449;SDS011;11897;45.438;12.128;2023-10-31T11:06:52;0.57;;;0.33;;
23449;SDS011;11897;45.438;12.128;2023-10-31T11:09:19;5.67;;;0.30;;
23449;SDS011;11897;45.438;12.128;2023-10-31T11:11:46;0.10;;;0.10;;
23449;SDS011;11897;45.438;12.128;2023-10-31T11:14:16;2.00;;;0.20;;
23449;SDS011;11897;45.438;12.128;2023-10-31T11:16:43;0.50;;;0.30;;
23449;SDS011;11897;45.438;12.128;2023-10-31T11:19:10;0.87;;;0.23;;
23449;SDS011;11897;45.438;12.128;2023-10-31T11:21:43;1.20;;;0.43;;
23449;SDS011;11897;45.438;12.128;2023-10-31T11:24:19;0.40;;;0.30;;
23449;SDS011;11897;45.438;12.128;2023-10-31T11:26:50;0.60;;;0.40;;
23449;SDS011;11897;45.438;12.128;2023-10-31T11:29:18;0.23;;;0.20;;
23449;SDS011;11897;45.438;12.128;2023-10-31T11:31:45;0.60;;;0.30;;
23449;SDS011;11897;45.438;12.128;2023-10-31T11:34:13;0.67;;;0.23;;
23449;SDS011;11897;45.438;12.128;2023-10-31T11:36:41;0.50;;;0.20;;
23449;SDS011;11897;45.438;12.128;2023-10-31T11:39:12;0.10;;;0.10;;
23449;SDS011;11897;45.438;12.128;2023-10-31T11:41:39;0.93;;;0.40;;
23449;SDS011;11897;45.438;12.128;2023-10-31T11:44:06;2.10;;;0.40;;
23449;SDS011;11897;45.438;12.128;2023-10-31T11:46:36;2.63;;;0.33;;
23449;SDS011;11897;45.438;12.128;2023-10-31T11:49:02;1.03;;;0.40;;
23449;SDS011;11897;45.438;12.128;2023-10-31T11:51:31;0.37;;;0.23;;
23449;SDS011;11897;45.438;12.128;2023-10-31T11:53:59;0.73;;;0.27;;
23449;SDS011;11897;45.438;12.128;2023-10-31T11:56:26;1.17;;;0.30;;
23449;SDS011;11897;45.438;12.128;2023-10-31T11:59:00;1.10;;;0.47;;
23449;SDS011;11897;45.438;12.128;2023-10-31T12:01:27;0.40;;;0.20;;
23449;SDS011;11897;45.438;12.128;2023-10-31T12:03:55;0.70;;;0.43;;
23449;SDS011;11897;45.438;12.128;2023-10-31T12:06:22;0.67;;;0.40;;
23449;SDS011;11897;45.438;12.128;2023-10-31T12:08:49;0.77;;;0.40;;
23449;SDS011;11897;45.438;12.128;2023-10-31T12:11:16;0.63;;;0.30;;
23449;SDS011;11897;45.438;12.128;2023-10-31T12:13:51;2.80;;;0.30;;
23449;SDS011;11897;45.438;12.128;2023-10-31T12:16:18;0.60;;;0.43;;
23449;SDS011;11897;45.438;12.128;2023-10-31T12:18:53;2.43;;;0.20;;
23449;SDS011;11897;45.438;12.128;2023-10-31T12:21:33;0.50;;;0.30;;
23449;SDS011;11897;45.438;12.128;2023-10-31T12:24:01;0.70;;;0.27;;
23449;SDS011;11897;45.438;12.128;2023-10-31T12:26:28;1.53;;;0.37;;
23449;SDS011;11897;45.438;12.128;2023-10-31T12:29:05;0.73;;;0.30;;
23449;SDS011;11897;45.438;12.128;2023-10-31T12:31:32;0.47;;;0.40;;
23449;SDS011;11897;45.438;12.128;2023-10-31T12:34:03;0.20;;;0.20;;
23449;SDS011;11897;45.438;12.128;2023-10-31T12:36:32;0.83;;;0.43;;
23449;SDS011;11897;45.438;12.128;2023-10-31T12:38:59;5.30;;;0.70;;
23449;SDS011;11897;45.438;12.128;2023-10-31T12:41:25;0.77;;;0.47;;
23449;SDS011;11897;45.438;12.128;2023-10-31T12:43:52;0.37;;;0.33;;
23449;SDS011;11897;45.438;12.128;2023-10-31T12:46:27;1.03;;;0.27;;
23449;SDS011;11897;45.438;12.128;2023-10-31T12:48:54;1.63;;;0.23;;
23449;SDS011;11897;45.438;12.128;2023-10-31T12:51:21;0.87;;;0.30;;
23449;SDS011;11897;45.438;12.128;2023-10-31T12:53:49;1.17;;;0.40;;
23449;SDS011;11897;45.438;12.128;2023-10-31T12:58:58;1.20;;;0.20;;
23449;SDS011;11897;45.438;12.128;2023-10-31T13:01:25;0.20;;;0.10;;
23449;SDS011;11897;45.438;12.128;2023-10-31T13:03:53;0.23;;;0.23;;
23449;SDS011;11897;45.438;12.128;2023-10-31T13:06:20;0.20;;;0.20;;
23449;SDS011;11897;45.438;12.128;2023-10-31T13:08:46;0.60;;;0.20;;
23449;SDS011;11897;45.438;12.128;2023-10-31T13:11:15;0.20;;;0.20;;
23449;SDS011;11897;45.438;12.128;2023-10-31T13:13:42;1.60;;;0.37;;
23449;SDS011;11897;45.438;12.128;2023-10-31T13:16:09;0.57;;;0.20;;
23449;SDS011;11897;45.438;12.128;2023-10-31T13:18:36;1.03;;;0.27;;
23449;SDS011;11897;45.438;12.128;2023-10-31T13:21:03;0.40;;;0.20;;
23449;SDS011;11897;45.438;12.128;2023-10-31T13:23:30;0.30;;;0.20;;
23449;SDS011;11897;45.438;12.128;2023-10-31T13:25:58;0.50;;;0.30;;
23449;SDS011;11897;45.438;12.128;2023-10-31T13:28:26;0.20;;;0.20;;
23449;SDS011;11897;45.438;12.128;2023-10-31T13:30:54;0.77;;;0.20;;
23449;SDS011;11897;45.438;12.128;2023-10-31T13:33:21;0.40;;;0.20;;
23449;SDS011;11897;45.438;12.128;2023-10-31T13:35:50;0.33;;;0.13;;
23449;SDS011;11897;45.438;12.128;2023-10-31T13:38:19;0.03;;;0.03;;
23449;SDS011;11897;45.438;12.128;2023-10-31T13:40:46;0.30;;;0.20;;
23449;SDS011;11897;45.438;12.128;2023-10-31T13:43:13;1.33;;;0.20;;
23449;SDS011;11897;45.438;12.128;2023-10-31T13:45:41;0.30;;;0.10;;
23449;SDS011;11897;45.438;12.128;2023-10-31T13:48:08;0.20;;;0.17;;
23449;SDS011;11897;45.438;12.128;2023-10-31T13:50:36;1.50;;;0.20;;
23449;SDS011;11897;45.438;12.128;2023-10-31T13:53:03;0.38;;;0.20;;
23449;SDS011;11897;45.438;12.128;2023-10-31T13:55:31;0.43;;;0.20;;
23449;SDS011;11897;45.438;12.128;2023-10-31T13:57:58;0.10;;;0.10;;
23449;SDS011;11897;45.438;12.128;2023-10-31T14:00:25;0.00;;;0.00;;
23449;SDS011;11897;45.438;12.128;2023-10-31T14:02:53;0.32;;;0.17;;
23449;SDS011;11897;45.438;12.128;2023-10-31T14:05:20;0.08;;;0.03;;
23449;SDS011;11897;45.438;12.128;2023-10-31T14:07:47;0.20;;;0.10;;
23449;SDS011;11897;45.438;12.128;2023-10-31T14:10:14;1.17;;;0.33;;
23449;SDS011;11897;45.438;12.128;2023-10-31T14:12:40;0.20;;;0.10;;
23449;SDS011;11897;45.438;12.128;2023-10-31T14:15:07;0.10;;;0.10;;
23449;SDS011;11897;45.438;12.128;2023-10-31T14:17:34;0.10;;;0.10;;
23449;SDS011;11897;45.438;12.128;2023-10-31T14:20:02;0.37;;;0.17;;
23449;SDS011;11897;45.438;12.128;2023-10-31T14:22:29;0.30;;;0.30;;
23449;SDS011;11897;45.438;12.128;2023-10-31T14:24:56;0.43;;;0.30;;
23449;SDS011;11897;45.438;12.128;2023-10-31T14:27:22;0.67;;;0.20;;
23449;SDS011;11897;45.438;12.128;2023-10-31T14:29:49;0.10;;;0.10;;
23449;SDS011;11897;45.438;12.128;2023-10-31T14:32:17;0.20;;;0.10;;
23449;SDS011;11897;45.438;12.128;2023-10-31T14:34:44;0.67;;;0.10;;
23449;SDS011;11897;45.438;12.128;2023-10-31T14:37:14;4.80;;;0.30;;